createdAt,value
2022-12-17T00:01:25.647Z,84.77
2022-12-17T00:04:12.669Z,84.85
2022-12-17T00:07:01.133Z,85.19
2022-12-17T00:09:50.418Z,84.91
2022-12-17T00:12:38.166Z,85.27
2022-12-17T00:15:25.489Z,85.07
2022-12-17T00:18:12.298Z,85.02
2022-12-17T00:20:59.230Z,85.14
2022-12-17T00:23:47.266Z,85.21
2022-12-17T00:26:34.127Z,85.39
2022-12-17T00:29:20.696Z,85.53
2022-12-17T00:32:07.853Z,85.04
2022-12-17T00:34:54.501Z,85.11
2022-12-17T00:37:44.084Z,85.55
2022-12-17T00:40:32.419Z,85.71
2022-12-17T00:43:20.452Z,86.15
2022-12-17T00:46:08.784Z,86.19
2022-12-17T00:48:56.378Z,85.88
2022-12-17T00:51:58.251Z,85.36
2022-12-17T00:54:45.432Z,85.03
2022-12-17T00:57:33.382Z,85.31
2022-12-17T01:00:20.467Z,85.76
2022-12-17T01:03:07.456Z,85.66
2022-12-17T01:05:54.452Z,85.90
2022-12-17T01:08:41.156Z,85.80
2022-12-17T01:11:28.463Z,85.33
2022-12-17T01:14:16.747Z,85.86
2022-12-17T01:17:04.556Z,85.82
2022-12-17T01:19:51.266Z,85.65
2022-12-17T01:22:39.363Z,85.94
2022-12-17T01:25:26.737Z,85.45
2022-12-17T01:28:14.257Z,85.43
2022-12-17T01:31:02.530Z,85.10
2022-12-17T01:33:49.475Z,85.40
2022-12-17T01:36:36.499Z,85.26
2022-12-17T01:39:24.154Z,85.07
2022-12-17T01:42:11.167Z,85.25
2022-12-17T01:45:08.024Z,85.42
2022-12-17T01:48:02.676Z,85.95
2022-12-17T01:50:52.968Z,85.46
2022-12-17T01:53:44.799Z,85.15
2022-12-17T01:56:32.414Z,85.01
2022-12-17T01:59:19.537Z,85.75
2022-12-17T02:02:06.619Z,85.68
2022-12-17T02:04:56.162Z,85.75
2022-12-17T02:07:56.599Z,85.68
2022-12-17T02:10:52.492Z,85.92
2022-12-17T02:13:48.591Z,85.51
2022-12-17T02:16:40.471Z,86.19
2022-12-17T02:19:40.048Z,86.15
2022-12-17T02:22:48.809Z,86.16
2022-12-17T02:26:18.392Z,86.60
2022-12-17T02:29:10.331Z,88.55
2022-12-17T02:31:59.191Z,88.07
2022-12-17T02:34:46.232Z,88.12
2022-12-17T02:37:34.025Z,88.14
2022-12-17T02:40:22.910Z,87.49
2022-12-17T02:43:10.562Z,86.62
2022-12-17T02:46:00.452Z,86.16
2022-12-17T02:48:47.662Z,86.75
2022-12-17T02:51:34.729Z,87.01
2022-12-17T02:54:22.515Z,86.47
2022-12-17T02:57:09.476Z,86.06
2022-12-17T02:59:56.319Z,86.13
2022-12-17T03:02:45.255Z,85.99
2022-12-17T03:05:47.551Z,86.88
2022-12-17T03:08:34.743Z,86.96
2022-12-17T03:11:22.049Z,87.24
2022-12-17T03:14:09.292Z,87.29
2022-12-17T03:16:57.393Z,86.93
2022-12-17T03:19:46.036Z,86.94
2022-12-17T03:22:32.791Z,86.93
2022-12-17T03:25:19.856Z,86.54
2022-12-17T03:28:06.751Z,86.90
2022-12-17T03:36:12.193Z,86.63
2022-12-17T03:39:02.341Z,86.20
2022-12-17T03:41:49.381Z,86.03
2022-12-17T03:44:36.225Z,86.33
2022-12-17T03:47:23.157Z,87.47
2022-12-17T03:50:10.138Z,86.81
2022-12-17T03:52:58.224Z,86.59
2022-12-17T03:55:45.228Z,86.79
2022-12-17T03:58:31.981Z,86.68
2022-12-17T04:01:19.195Z,86.93
2022-12-17T04:04:06.211Z,87.67
2022-12-17T04:06:49.874Z,87.41
2022-12-17T04:09:38.069Z,86.80
2022-12-17T04:12:25.023Z,86.96
2022-12-17T04:15:08.030Z,87.03
2022-12-17T04:17:55.376Z,87.13
2022-12-17T04:20:42.255Z,86.97
2022-12-17T04:23:25.567Z,86.50
2022-12-17T04:26:13.646Z,85.97
2022-12-17T04:29:00.567Z,86.00
2022-12-17T04:31:47.616Z,86.64
2022-12-17T04:34:34.648Z,86.33
2022-12-17T04:37:21.627Z,86.65
2022-12-17T04:40:08.521Z,86.20
2022-12-17T04:42:56.700Z,86.46
2022-12-17T04:45:43.682Z,86.58
2022-12-17T04:48:30.486Z,86.38
2022-12-17T04:51:17.466Z,86.45
2022-12-17T04:54:04.380Z,86.61
2022-12-17T04:56:51.337Z,86.35
2022-12-17T04:59:39.736Z,86.64
2022-12-17T05:02:42.686Z,86.21
2022-12-17T05:05:30.250Z,86.63
2022-12-17T05:08:19.803Z,86.73
2022-12-17T05:11:06.789Z,86.95
2022-12-17T05:13:53.864Z,87.03
2022-12-17T05:16:41.839Z,86.40
2022-12-17T05:19:29.093Z,86.70
2022-12-17T05:22:21.605Z,86.55
2022-12-17T05:25:10.071Z,86.33
2022-12-17T05:27:56.872Z,86.74
2022-12-17T05:30:44.078Z,86.65
2022-12-17T05:33:32.361Z,86.29
2022-12-17T05:36:20.072Z,86.41
2022-12-17T05:39:06.816Z,86.19
2022-12-17T05:41:53.925Z,86.06
2022-12-17T05:44:40.139Z,85.82
2022-12-17T05:47:27.272Z,86.42
2022-12-17T05:50:15.286Z,86.35
2022-12-17T05:53:02.452Z,86.61
2022-12-17T05:55:49.345Z,86.80
2022-12-17T05:58:36.459Z,87.36
2022-12-17T06:01:24.705Z,87.96
2022-12-17T06:04:11.719Z,87.70
2022-12-17T06:07:00.034Z,87.94
2022-12-17T06:09:47.126Z,87.98
2022-12-17T06:12:33.941Z,87.86
2022-12-17T06:15:21.042Z,87.49
2022-12-17T06:18:16.641Z,87.04
2022-12-17T06:21:05.090Z,86.42
2022-12-17T06:23:53.430Z,86.30
2022-12-17T06:26:40.360Z,85.79
2022-12-17T06:29:27.279Z,85.87
2022-12-17T06:32:14.542Z,85.40
2022-12-17T06:35:01.758Z,85.41
2022-12-17T06:37:48.948Z,85.87
2022-12-17T06:40:37.131Z,85.78
2022-12-17T06:43:23.887Z,85.54
2022-12-17T06:46:25.889Z,85.71
2022-12-17T06:49:12.887Z,85.58
2022-12-17T06:51:59.619Z,85.60
2022-12-17T06:54:47.311Z,85.21
2022-12-17T06:57:40.455Z,85.12
2022-12-17T07:00:30.247Z,84.93
2022-12-17T07:03:25.501Z,84.61
2022-12-17T07:06:12.898Z,84.55
2022-12-17T07:08:59.727Z,84.88
2022-12-17T07:11:46.655Z,84.95
2022-12-17T07:14:35.084Z,84.98
2022-12-17T07:17:22.397Z,84.98
2022-12-17T07:20:09.390Z,84.65
2022-12-17T07:22:56.221Z,84.52
2022-12-17T07:25:46.205Z,83.68
2022-12-17T07:28:33.831Z,83.89
2022-12-17T07:31:22.014Z,83.67
2022-12-17T07:34:09.079Z,83.24
2022-12-17T07:36:57.087Z,83.11
2022-12-17T07:39:44.190Z,83.28
2022-12-17T07:42:30.813Z,83.49
2022-12-17T07:45:26.116Z,83.52
2022-12-17T07:48:14.796Z,83.46
2022-12-17T07:51:01.869Z,83.07
2022-12-17T07:53:48.910Z,83.03
2022-12-17T07:56:36.067Z,82.85
2022-12-17T07:59:23.228Z,82.64
2022-12-17T08:02:11.048Z,82.45
2022-12-17T08:04:59.874Z,82.44
2022-12-17T08:07:46.921Z,82.13
2022-12-17T08:10:33.620Z,82.10
2022-12-17T08:13:22.642Z,81.43
2022-12-17T08:16:11.142Z,80.89
2022-12-17T08:18:58.551Z,81.12
2022-12-17T08:21:46.599Z,80.79
2022-12-17T08:24:33.959Z,81.52
2022-12-17T08:27:20.662Z,81.14
2022-12-17T08:30:22.510Z,81.96
2022-12-17T08:33:09.478Z,82.30
2022-12-17T08:35:56.436Z,82.64
2022-12-17T08:38:44.637Z,82.89
2022-12-17T08:41:32.061Z,82.99
2022-12-17T08:44:18.315Z,82.94
2022-12-17T08:47:05.445Z,83.22
2022-12-17T08:49:52.548Z,83.29
2022-12-17T08:52:39.557Z,82.73
2022-12-17T08:55:28.298Z,82.27
2022-12-17T08:58:16.623Z,81.47
2022-12-17T09:01:04.238Z,80.44
2022-12-17T09:03:51.701Z,79.02
2022-12-17T09:06:39.445Z,78.26
2022-12-17T09:09:26.746Z,77.66
2022-12-17T09:12:14.795Z,76.13
2022-12-17T09:15:01.948Z,75.30
2022-12-17T09:17:48.492Z,75.10
2022-12-17T09:20:35.525Z,75.64
2022-12-17T09:23:22.602Z,75.41
2022-12-17T09:26:12.166Z,76.44
2022-12-17T09:29:00.196Z,76.83
2022-12-17T09:31:48.600Z,76.34
2022-12-17T09:34:35.605Z,76.58
2022-12-17T09:37:23.320Z,76.42
2022-12-17T09:40:10.134Z,76.28
2022-12-17T09:43:04.031Z,75.47
2022-12-17T09:45:59.952Z,74.26
2022-12-17T09:48:54.739Z,70.49
2022-12-17T09:51:43.699Z,67.93
2022-12-17T09:54:38.920Z,64.46
2022-12-17T09:57:32.551Z,65.21
2022-12-17T10:00:21.524Z,59.13
2022-12-17T10:03:10.175Z,59.93
2022-12-17T10:05:59.756Z,66.16
2022-12-17T10:08:47.194Z,67.48
2022-12-17T10:11:39.855Z,69.11
2022-12-17T10:14:35.027Z,68.55
2022-12-17T10:17:22.782Z,68.72
2022-12-17T10:20:13.877Z,68.98
2022-12-17T10:23:05.743Z,68.63
2022-12-17T10:25:53.433Z,70.34
2022-12-17T10:28:43.134Z,70.30
2022-12-17T10:31:34.961Z,70.47
2022-12-17T10:34:26.365Z,72.70
2022-12-17T10:37:20.130Z,72.20
2022-12-17T10:40:16.781Z,72.32
2022-12-17T10:43:04.295Z,72.52
2022-12-17T10:45:49.789Z,73.09
2022-12-17T10:48:38.221Z,74.42
2022-12-17T10:51:31.979Z,74.31
2022-12-17T10:54:28.999Z,73.09
2022-12-17T10:57:24.680Z,72.43
2022-12-17T11:00:11.618Z,72.57
2022-12-17T11:03:16.486Z,73.11
2022-12-17T11:06:03.533Z,72.98
2022-12-17T11:08:51.202Z,72.06
2022-12-17T11:11:39.718Z,72.90
2022-12-17T11:14:28.959Z,72.11
2022-12-17T11:17:18.799Z,73.07
2022-12-17T11:20:11.513Z,71.64
2022-12-17T11:23:02.984Z,72.13
2022-12-17T11:26:00.528Z,71.82
2022-12-17T11:28:51.738Z,72.35
2022-12-17T11:32:12.434Z,72.53
2022-12-17T11:35:14.881Z,72.93
2022-12-17T11:38:09.487Z,71.81
2022-12-17T11:40:59.808Z,73.32
2022-12-17T11:43:56.017Z,72.70
2022-12-17T11:46:57.460Z,71.25
2022-12-17T11:49:57.209Z,70.58
2022-12-17T11:52:54.409Z,68.02
2022-12-17T11:55:52.129Z,67.54
2022-12-17T11:58:48.272Z,67.19
2022-12-17T12:01:46.042Z,69.79
2022-12-17T12:04:45.530Z,70.92
2022-12-17T12:07:39.202Z,71.50
2022-12-17T12:10:33.648Z,72.42
2022-12-17T12:13:31.744Z,73.09
2022-12-17T12:16:30.225Z,73.25
2022-12-17T12:19:27.682Z,74.19
2022-12-17T12:22:30.364Z,74.27
2022-12-17T12:25:49.836Z,73.80
2022-12-17T12:28:48.800Z,72.61
2022-12-17T12:31:45.928Z,72.52
2022-12-17T12:34:38.666Z,72.54
2022-12-17T12:37:30.246Z,73.10
2022-12-17T12:40:23.049Z,72.86
2022-12-17T12:43:16.484Z,73.80
2022-12-17T12:46:13.687Z,74.14
2022-12-17T12:49:06.919Z,74.39
2022-12-17T12:51:56.710Z,74.59
2022-12-17T12:54:47.362Z,74.23
2022-12-17T12:57:49.285Z,74.34
2022-12-17T13:00:55.274Z,74.63
2022-12-17T13:03:48.650Z,74.81
2022-12-17T13:06:43.453Z,75.19
2022-12-17T13:09:35.424Z,76.19
2022-12-17T13:12:34.852Z,76.14
2022-12-17T13:15:22.740Z,76.30
2022-12-17T13:18:05.036Z,76.46
2022-12-17T13:20:36.021Z,76.50
2022-12-17T13:23:26.796Z,76.18
2022-12-17T13:26:17.123Z,76.37
2022-12-17T13:29:04.461Z,76.52
2022-12-17T13:31:48.906Z,77.06
2022-12-17T13:34:27.223Z,76.97
2022-12-17T13:37:02.914Z,77.56
2022-12-17T13:39:42.449Z,76.90
2022-12-17T13:42:28.160Z,77.06
2022-12-17T13:44:58.702Z,76.61
2022-12-17T13:47:30.691Z,77.15
2022-12-17T13:50:32.916Z,77.86
2022-12-17T13:52:54.619Z,78.32
2022-12-17T13:55:29.177Z,78.69
2022-12-17T13:57:58.636Z,78.32
2022-12-17T14:00:30.512Z,78.31
2022-12-17T14:03:10.801Z,78.92
2022-12-17T14:05:44.692Z,78.50
2022-12-17T14:08:18.512Z,78.81
2022-12-17T14:11:14.635Z,78.57
2022-12-17T14:13:44.001Z,78.19
2022-12-17T14:16:17.833Z,78.26
2022-12-17T14:18:51.058Z,78.84
2022-12-17T14:21:21.462Z,78.31
2022-12-17T14:23:53.074Z,78.39
2022-12-17T14:26:24.412Z,78.21
2022-12-17T14:28:55.879Z,78.04
2022-12-17T14:31:28.764Z,78.38
2022-12-17T14:34:08.539Z,79.13
2022-12-17T14:36:39.861Z,78.91
2022-12-17T14:39:24.051Z,78.64
2022-12-17T14:42:14.449Z,78.39
2022-12-17T14:44:52.948Z,78.06
2022-12-17T14:47:25.923Z,78.39
2022-12-17T14:50:05.658Z,78.67
2022-12-17T14:52:46.297Z,78.99
2022-12-17T14:55:35.496Z,79.47
2022-12-17T14:58:21.477Z,79.86
2022-12-17T15:00:54.963Z,79.72
2022-12-17T15:03:28.288Z,79.98
2022-12-17T15:06:02.355Z,79.94
2022-12-17T15:08:38.681Z,79.84
2022-12-17T15:11:08.470Z,79.58
2022-12-17T15:13:39.492Z,79.83
2022-12-17T15:16:09.343Z,79.39
2022-12-17T15:18:39.651Z,79.17
2022-12-17T15:21:12.036Z,78.77
2022-12-17T15:23:44.933Z,78.59
2022-12-17T15:26:15.537Z,77.96
2022-12-17T15:28:47.922Z,77.89
2022-12-17T15:31:21.832Z,77.69
2022-12-17T15:33:54.554Z,77.97
2022-12-17T15:36:23.906Z,78.41
2022-12-17T15:38:53.599Z,78.82
2022-12-17T15:41:40.452Z,78.74
2022-12-17T15:44:11.540Z,78.37
2022-12-17T15:46:40.975Z,78.25
2022-12-17T15:49:10.754Z,78.23
2022-12-17T15:51:40.100Z,77.58
2022-12-17T15:54:09.695Z,76.90
2022-12-17T15:56:39.228Z,77.24
2022-12-17T15:59:10.215Z,76.94
2022-12-17T16:01:40.593Z,77.05
2022-12-17T16:04:19.085Z,76.70
2022-12-17T16:06:53.580Z,76.65
2022-12-17T16:09:26.043Z,77.12
2022-12-17T16:11:56.271Z,77.65
2022-12-17T16:14:27.647Z,77.98
2022-12-17T16:16:56.974Z,77.71
2022-12-17T16:19:26.714Z,77.11
2022-12-17T16:21:56.232Z,76.92
2022-12-17T16:24:26.238Z,77.00
2022-12-17T16:26:59.417Z,76.98
2022-12-17T16:29:33.811Z,77.25
2022-12-17T16:32:03.242Z,77.62
2022-12-17T16:34:32.972Z,77.73
2022-12-17T16:37:02.308Z,77.70
2022-12-17T16:39:33.320Z,77.60
2022-12-17T16:42:02.851Z,77.85
2022-12-17T16:44:34.060Z,77.71
2022-12-17T16:47:03.486Z,77.49
2022-12-17T16:49:33.360Z,77.69
2022-12-17T16:52:03.671Z,77.57
2022-12-17T16:54:34.228Z,77.30
2022-12-17T16:57:03.981Z,77.76
2022-12-17T16:59:35.221Z,77.77
2022-12-17T17:02:04.724Z,77.35
2022-12-17T17:04:35.324Z,77.26
2022-12-17T17:07:04.713Z,77.45
2022-12-17T17:09:34.668Z,77.74
2022-12-17T17:12:04.038Z,77.95
2022-12-17T17:14:35.494Z,78.30
2022-12-17T17:17:04.917Z,78.23
2022-12-17T17:19:34.810Z,77.86
2022-12-17T17:22:04.439Z,77.72
2022-12-17T17:24:34.212Z,78.06
2022-12-17T17:27:03.622Z,78.46
2022-12-17T17:29:34.735Z,78.62
2022-12-17T17:32:13.012Z,78.57
2022-12-17T17:34:43.515Z,78.29
2022-12-17T17:37:13.602Z,78.92
2022-12-17T17:39:43.445Z,79.20
2022-12-17T17:42:13.048Z,78.79
2022-12-17T17:44:44.512Z,79.09
2022-12-17T17:47:13.997Z,79.60
2022-12-17T17:49:43.932Z,79.59
2022-12-17T17:52:13.265Z,79.65
2022-12-17T17:54:43.189Z,79.46
2022-12-17T17:57:12.903Z,79.19
2022-12-17T17:59:44.013Z,78.90
2022-12-17T18:02:14.039Z,78.87
2022-12-17T18:04:43.921Z,78.76
2022-12-17T18:07:25.214Z,78.39
2022-12-17T18:09:56.314Z,78.67
2022-12-17T18:12:42.937Z,78.49
2022-12-17T18:15:16.423Z,78.24
2022-12-17T18:17:47.813Z,78.04
2022-12-17T18:20:18.042Z,78.53
2022-12-17T18:22:47.674Z,78.18
2022-12-17T18:25:18.022Z,78.11
2022-12-17T18:27:47.557Z,78.29
2022-12-17T18:30:18.848Z,78.29
2022-12-17T18:32:50.062Z,78.19
2022-12-17T18:35:20.043Z,77.86
2022-12-17T18:37:49.554Z,77.65
2022-12-17T18:40:19.260Z,77.87
2022-12-17T18:43:06.139Z,78.20
2022-12-17T18:45:38.439Z,77.68
2022-12-17T18:48:08.262Z,77.48
2022-12-17T18:50:39.335Z,77.96
2022-12-17T18:53:08.712Z,77.76
2022-12-17T18:55:40.660Z,77.63
2022-12-17T18:58:11.103Z,77.68
2022-12-17T19:00:42.418Z,77.88
2022-12-17T19:03:13.068Z,77.54
2022-12-17T19:05:46.505Z,77.59
2022-12-17T19:08:17.649Z,77.57
2022-12-17T19:10:47.247Z,77.29
2022-12-17T19:13:16.790Z,77.10
2022-12-17T19:15:47.992Z,76.89
2022-12-17T19:18:17.348Z,77.16
2022-12-17T19:20:47.936Z,76.90
2022-12-17T19:23:17.217Z,76.69
2022-12-17T19:25:46.822Z,76.59
2022-12-17T19:28:17.194Z,77.36
2022-12-17T19:30:48.277Z,77.37
2022-12-17T19:33:19.154Z,77.05
2022-12-17T19:35:48.758Z,77.50
2022-12-17T19:38:20.237Z,77.59
2022-12-17T19:40:52.291Z,77.26
2022-12-17T19:43:23.288Z,77.07
2022-12-17T19:45:54.527Z,77.12
2022-12-17T19:48:24.285Z,77.42
2022-12-17T19:50:58.452Z,77.22
2022-12-17T19:53:29.180Z,77.36
2022-12-17T19:56:10.247Z,77.16
2022-12-17T19:58:41.187Z,77.07
2022-12-17T20:01:15.650Z,77.53
2022-12-17T20:03:46.219Z,76.87
2022-12-17T20:06:18.347Z,77.83
2022-12-17T20:08:47.853Z,77.62
2022-12-17T20:11:34.324Z,78.37
2022-12-17T20:14:06.590Z,77.96
2022-12-17T20:16:40.412Z,77.82
2022-12-17T20:19:13.009Z,78.57
2022-12-17T20:21:43.154Z,78.49
2022-12-17T20:24:14.475Z,78.61
2022-12-17T20:26:46.607Z,79.12
2022-12-17T20:29:16.090Z,78.83
2022-12-17T20:31:49.934Z,78.94
2022-12-17T20:34:23.489Z,78.79
2022-12-17T20:36:56.186Z,78.97
2022-12-17T20:39:28.139Z,79.28
2022-12-17T20:41:59.308Z,78.94
2022-12-17T20:44:29.117Z,78.94
2022-12-17T20:47:01.335Z,78.89
2022-12-17T20:49:31.654Z,78.93
2022-12-17T20:52:02.195Z,79.34
2022-12-17T20:54:31.875Z,79.62
2022-12-17T20:57:01.296Z,79.82
2022-12-17T20:59:31.063Z,79.62
2022-12-17T21:02:01.916Z,79.63
2022-12-17T21:04:31.613Z,79.55
2022-12-17T21:07:01.213Z,80.55
2022-12-17T21:09:31.791Z,80.59
2022-12-17T21:12:01.082Z,81.19
2022-12-17T21:14:35.464Z,81.20
2022-12-17T21:17:06.917Z,80.84
2022-12-17T21:19:36.833Z,81.03
2022-12-17T21:22:06.926Z,81.59
2022-12-17T21:24:42.122Z,82.18
2022-12-17T21:27:14.938Z,81.80
2022-12-17T21:29:45.353Z,81.88
2022-12-17T21:32:17.184Z,81.98
2022-12-17T21:34:46.998Z,82.39
2022-12-17T21:37:16.447Z,82.39
2022-12-17T21:39:46.686Z,82.11
2022-12-17T21:42:33.611Z,82.66
2022-12-17T21:45:03.566Z,82.17
2022-12-17T21:47:34.657Z,82.35
2022-12-17T21:50:04.408Z,82.63
2022-12-17T21:52:33.722Z,83.07
2022-12-17T21:55:03.852Z,82.82
2022-12-17T21:57:33.182Z,83.54
2022-12-17T22:00:02.879Z,83.07
2022-12-17T22:02:35.254Z,82.79
2022-12-17T22:05:05.281Z,82.50
2022-12-17T22:07:35.474Z,82.73
2022-12-17T22:10:34.652Z,82.79
2022-12-17T22:13:18.758Z,82.49
2022-12-17T22:15:48.770Z,83.84
2022-12-17T22:18:19.553Z,84.14
2022-12-17T22:20:59.489Z,84.91
2022-12-17T22:23:28.932Z,83.92
2022-12-17T22:25:58.873Z,83.75
2022-12-17T22:28:28.121Z,84.17
2022-12-17T22:31:15.174Z,84.10
2022-12-17T22:34:59.319Z,84.06
2022-12-17T22:39:34.043Z,84.52
2022-12-17T22:44:28.919Z,84.49
2022-12-17T22:44:44.078Z,84.64
2022-12-17T22:45:42.281Z,84.51
2022-12-17T22:48:14.951Z,84.74
2022-12-17T22:51:05.504Z,84.59
2022-12-17T22:53:35.648Z,84.82
2022-12-17T22:56:19.710Z,84.76
2022-12-17T22:58:58.383Z,84.27
2022-12-17T23:01:28.012Z,84.47
2022-12-17T23:03:58.611Z,83.87
2022-12-17T23:06:30.218Z,84.53
2022-12-17T23:09:00.214Z,84.04
2022-12-17T23:11:31.478Z,84.70
2022-12-17T23:14:04.729Z,84.59
2022-12-17T23:16:34.036Z,84.44
2022-12-17T23:19:05.000Z,84.64
2022-12-17T23:21:36.135Z,84.86
2022-12-17T23:24:06.640Z,85.22
2022-12-17T23:26:38.004Z,83.67
2022-12-17T23:29:19.158Z,84.28
2022-12-17T23:31:49.241Z,85.73
2022-12-17T23:34:19.124Z,86.05
2022-12-17T23:36:49.944Z,86.51
2022-12-17T23:39:19.588Z,86.53
2022-12-17T23:41:48.884Z,86.28
2022-12-17T23:44:18.751Z,85.98
2022-12-17T23:46:48.167Z,86.53
2022-12-17T23:49:17.958Z,86.23
2022-12-17T23:51:48.717Z,87.04
2022-12-17T23:54:18.354Z,86.46
2022-12-17T23:56:48.270Z,86.69
2022-12-17T23:59:17.927Z,87.24
